createdAt,value
2022-10-31T00:00:05.188Z,15.27
2022-10-31T00:02:44.787Z,12.55
2022-10-31T00:05:15.290Z,11.10
2022-10-31T00:07:45.867Z,8.10
2022-10-31T00:10:16.350Z,10.57
2022-10-31T00:12:46.918Z,11.02
2022-10-31T00:15:17.521Z,14.50
2022-10-31T00:17:50.698Z,9.25
2022-10-31T00:20:21.094Z,9.50
2022-10-31T00:22:51.639Z,9.52
2022-10-31T00:25:22.164Z,8.48
2022-10-31T00:27:52.658Z,11.20
2022-10-31T00:30:23.842Z,8.35
2022-10-31T00:32:57.255Z,9.88
2022-10-31T00:35:28.321Z,8.73
2022-10-31T00:37:59.013Z,9.27
2022-10-31T00:40:29.422Z,7.03
2022-10-31T00:43:00.424Z,7.45
2022-10-31T00:45:31.052Z,11.20
2022-10-31T00:48:04.761Z,7.78
2022-10-31T00:50:35.139Z,8.90
2022-10-31T00:53:05.874Z,7.80
2022-10-31T00:55:36.558Z,6.07
2022-10-31T00:58:08.034Z,6.25
2022-10-31T01:00:38.631Z,8.05
2022-10-31T01:03:11.905Z,5.57
2022-10-31T01:05:45.400Z,8.30
2022-10-31T01:08:15.893Z,11.63
2022-10-31T01:10:47.366Z,8.23
2022-10-31T01:13:19.204Z,7.78
2022-10-31T01:15:49.753Z,10.07
2022-10-31T01:18:22.875Z,6.60
2022-10-31T01:21:02.988Z,9.52
2022-10-31T01:23:34.018Z,8.13
2022-10-31T01:26:06.769Z,9.30
2022-10-31T01:28:38.047Z,6.90
2022-10-31T01:31:10.442Z,4.68
2022-10-31T01:33:43.764Z,6.50
2022-10-31T01:36:19.985Z,7.85
2022-10-31T01:38:54.876Z,6.47
2022-10-31T01:41:27.005Z,5.85
2022-10-31T01:43:59.649Z,7.35
2022-10-31T01:46:33.307Z,6.60
2022-10-31T01:49:09.556Z,5.35
2022-10-31T01:51:42.816Z,10.48
2022-10-31T01:54:19.841Z,7.35
2022-10-31T01:56:54.329Z,8.43
2022-10-31T01:59:27.733Z,7.87
2022-10-31T02:01:59.521Z,6.03
2022-10-31T02:04:33.837Z,7.35
2022-10-31T02:07:09.198Z,7.30
2022-10-31T02:12:13.373Z,5.30
2022-10-31T02:14:45.477Z,14.02
2022-10-31T02:17:16.273Z,5.78
2022-10-31T02:19:56.822Z,7.10
2022-10-31T02:22:34.315Z,7.45
2022-10-31T02:25:26.041Z,7.38
2022-10-31T02:28:20.001Z,7.28
2022-10-31T02:31:16.837Z,6.80
2022-10-31T02:33:52.717Z,9.25
2022-10-31T02:36:31.081Z,10.30
2022-10-31T02:39:13.001Z,5.68
2022-10-31T02:41:52.671Z,8.60
2022-10-31T02:44:32.924Z,6.78
2022-10-31T02:47:10.434Z,8.60
2022-10-31T02:49:44.343Z,6.88
2022-10-31T02:52:21.654Z,5.18
2022-10-31T02:54:52.608Z,7.05
2022-10-31T02:57:27.833Z,6.88
2022-10-31T03:00:02.934Z,5.70
2022-10-31T03:02:53.382Z,7.10
2022-10-31T03:05:53.726Z,4.28
2022-10-31T03:08:34.115Z,9.27
2022-10-31T03:11:06.966Z,8.20
2022-10-31T03:13:43.523Z,6.47
2022-10-31T03:16:18.453Z,7.80
2022-10-31T03:18:57.902Z,6.70
2022-10-31T03:21:31.267Z,8.07
2022-10-31T03:24:04.727Z,8.35
2022-10-31T03:26:36.410Z,8.35
2022-10-31T03:29:09.267Z,8.48
2022-10-31T03:31:50.021Z,11.90
2022-10-31T03:34:24.676Z,9.63
2022-10-31T03:37:01.191Z,13.30
2022-10-31T03:39:32.744Z,11.50
2022-10-31T03:42:09.138Z,10.38
2022-10-31T03:44:42.103Z,11.50
2022-10-31T03:47:13.055Z,8.02
2022-10-31T03:49:46.153Z,14.15
2022-10-31T03:52:24.386Z,12.52
2022-10-31T03:55:01.105Z,12.88
2022-10-31T03:57:39.679Z,10.85
2022-10-31T04:00:13.456Z,8.57
2022-10-31T04:02:56.263Z,8.00
2022-10-31T04:05:29.518Z,5.75
2022-10-31T04:08:06.794Z,12.73
2022-10-31T04:10:39.011Z,7.13
2022-10-31T04:13:12.676Z,6.93
2022-10-31T04:15:55.886Z,6.20
2022-10-31T04:18:27.368Z,8.93
2022-10-31T04:21:08.175Z,8.85
2022-10-31T04:23:40.120Z,8.18
2022-10-31T04:26:33.835Z,13.00
2022-10-31T04:29:04.387Z,7.68
2022-10-31T04:31:37.000Z,6.82
2022-10-31T04:34:08.495Z,8.05
2022-10-31T04:36:41.684Z,8.02
2022-10-31T04:39:12.208Z,10.82
2022-10-31T04:41:48.635Z,6.05
2022-10-31T04:44:19.510Z,8.60
2022-10-31T04:46:54.182Z,8.95
2022-10-31T04:49:24.664Z,9.25
2022-10-31T04:51:57.811Z,12.98
2022-10-31T04:54:28.582Z,14.82
2022-10-31T04:57:00.097Z,8.90
2022-10-31T04:59:32.866Z,7.90
2022-10-31T05:02:04.092Z,12.82
2022-10-31T05:04:48.827Z,10.65
2022-10-31T05:07:22.432Z,10.43
2022-10-31T05:09:53.370Z,9.60
2022-10-31T05:12:24.464Z,10.18
2022-10-31T05:15:22.388Z,13.75
2022-10-31T05:18:11.755Z,9.07
2022-10-31T05:21:00.871Z,8.60
2022-10-31T05:23:45.843Z,9.55
2022-10-31T05:26:19.025Z,10.20
2022-10-31T05:28:51.015Z,12.73
2022-10-31T05:31:21.561Z,12.88
2022-10-31T05:33:53.802Z,21.05
2022-10-31T05:36:56.406Z,14.60
2022-10-31T05:39:29.913Z,17.30
2022-10-31T05:42:04.805Z,20.58
2022-10-31T05:44:35.320Z,20.10
2022-10-31T05:47:29.347Z,18.73
2022-10-31T05:49:59.849Z,23.45
2022-10-31T05:52:39.581Z,31.35
2022-10-31T05:55:42.463Z,11.85
2022-10-31T05:58:16.266Z,12.07
2022-10-31T06:00:54.084Z,14.32
2022-10-31T06:03:24.654Z,15.65
2022-10-31T06:06:00.229Z,13.63
2022-10-31T06:08:40.917Z,13.48
2022-10-31T06:11:20.106Z,10.73
2022-10-31T06:14:05.986Z,14.20
2022-10-31T06:16:47.864Z,15.70
2022-10-31T06:19:41.265Z,16.08
2022-10-31T06:22:14.897Z,11.85
2022-10-31T06:24:47.215Z,17.38
2022-10-31T06:27:41.663Z,9.55
2022-10-31T06:30:18.437Z,11.88
2022-10-31T06:32:50.653Z,12.77
2022-10-31T06:35:21.579Z,12.75
2022-10-31T06:37:55.973Z,11.73
2022-10-31T06:40:42.228Z,18.67
2022-10-31T06:43:29.007Z,15.35
2022-10-31T06:46:19.933Z,15.02
2022-10-31T06:49:03.244Z,10.30
2022-10-31T06:51:54.582Z,18.85
2022-10-31T06:54:25.589Z,14.45
2022-10-31T06:56:56.848Z,14.20
2022-10-31T06:59:30.140Z,13.85
2022-10-31T07:02:20.564Z,15.98
2022-10-31T07:04:52.765Z,15.82
2022-10-31T07:07:23.598Z,13.07
2022-10-31T07:09:54.986Z,14.23
2022-10-31T07:12:40.162Z,10.60
2022-10-31T07:15:13.948Z,17.77
2022-10-31T07:17:44.457Z,18.23
2022-10-31T07:20:15.202Z,9.60
2022-10-31T07:22:50.479Z,14.25
2022-10-31T07:25:21.641Z,14.73
2022-10-31T07:28:12.589Z,15.05
2022-10-31T07:30:45.816Z,15.98
2022-10-31T07:33:16.724Z,15.02
2022-10-31T07:36:22.809Z,12.82
2022-10-31T07:38:56.058Z,17.02
2022-10-31T07:41:26.579Z,17.98
2022-10-31T07:43:57.940Z,16.95
2022-10-31T07:46:49.697Z,12.05
2022-10-31T07:49:45.854Z,24.55
2022-10-31T07:52:35.106Z,11.30
2022-10-31T07:55:23.944Z,13.35
2022-10-31T07:58:00.592Z,18.55
2022-10-31T08:00:33.419Z,14.98
2022-10-31T08:03:08.742Z,10.63
2022-10-31T08:06:00.766Z,13.13
2022-10-31T08:09:00.610Z,9.18
2022-10-31T08:11:31.167Z,12.30
2022-10-31T08:14:02.272Z,19.77
2022-10-31T08:16:32.803Z,10.75
2022-10-31T08:19:08.778Z,13.80
2022-10-31T08:21:42.252Z,10.05
2022-10-31T08:24:13.338Z,15.27
2022-10-31T08:26:44.713Z,11.70
2022-10-31T08:29:16.099Z,17.02
2022-10-31T08:31:47.338Z,9.75
2022-10-31T08:34:39.336Z,10.55
2022-10-31T08:37:41.831Z,13.65
2022-10-31T08:40:15.135Z,10.93
2022-10-31T08:42:46.042Z,7.97
2022-10-31T08:45:16.718Z,8.93
2022-10-31T08:47:47.224Z,11.60
2022-10-31T08:50:20.751Z,10.02
2022-10-31T08:53:04.889Z,9.73
2022-10-31T08:55:38.706Z,11.40
2022-10-31T08:58:16.926Z,10.43
2022-10-31T09:00:55.137Z,14.32
2022-10-31T09:03:28.164Z,10.50
2022-10-31T09:06:03.897Z,9.52
2022-10-31T09:08:36.105Z,10.93
2022-10-31T09:11:07.880Z,16.13
2022-10-31T09:13:57.288Z,9.10
2022-10-31T09:16:47.981Z,11.25
2022-10-31T09:19:25.560Z,11.60
2022-10-31T09:21:59.451Z,13.10
2022-10-31T09:24:30.599Z,12.30
2022-10-31T09:27:02.895Z,11.25
2022-10-31T09:29:33.442Z,9.55
2022-10-31T09:32:05.096Z,11.02
2022-10-31T09:34:41.502Z,12.38
2022-10-31T09:37:19.791Z,17.02
2022-10-31T09:39:50.287Z,8.30
2022-10-31T09:42:49.479Z,8.77
2022-10-31T09:45:30.553Z,9.07
2022-10-31T09:48:22.946Z,9.23
2022-10-31T09:51:13.062Z,19.08
2022-10-31T09:54:10.843Z,13.95
2022-10-31T09:56:42.141Z,11.25
2022-10-31T09:59:29.119Z,9.23
2022-10-31T10:02:10.177Z,9.98
2022-10-31T10:04:51.878Z,8.90
2022-10-31T10:07:32.795Z,9.57
2022-10-31T10:10:46.944Z,11.70
2022-10-31T10:14:01.835Z,15.73
2022-10-31T10:16:47.553Z,14.18
2022-10-31T10:19:29.777Z,11.88
2022-10-31T10:22:10.159Z,11.82
2022-10-31T10:24:58.708Z,7.40
2022-10-31T10:27:45.729Z,13.88
2022-10-31T10:30:19.880Z,18.48
2022-10-31T10:32:54.098Z,7.27
2022-10-31T10:35:29.968Z,10.63
2022-10-31T10:38:06.651Z,10.63
2022-10-31T10:40:37.160Z,9.88
2022-10-31T10:43:25.026Z,8.93
2022-10-31T10:46:19.900Z,7.13
2022-10-31T10:48:57.440Z,12.65
2022-10-31T10:54:49.844Z,10.48
2022-10-31T10:57:40.462Z,9.75
2022-10-31T11:00:23.022Z,10.07
2022-10-31T11:02:53.951Z,11.05
2022-10-31T11:05:32.176Z,6.25
2022-10-31T11:08:02.688Z,9.68
2022-10-31T11:10:33.457Z,11.25
2022-10-31T11:13:27.646Z,6.55
2022-10-31T11:16:04.309Z,9.38
2022-10-31T11:18:36.685Z,7.10
2022-10-31T11:21:08.577Z,5.88
2022-10-31T11:23:39.401Z,10.30
2022-10-31T11:26:22.924Z,6.80
2022-10-31T11:29:03.417Z,8.25
2022-10-31T11:31:38.829Z,7.38
2022-10-31T11:34:18.051Z,11.68
2022-10-31T11:36:48.918Z,7.60
2022-10-31T11:39:23.989Z,13.63
2022-10-31T11:41:56.433Z,14.10
2022-10-31T11:44:30.117Z,8.82
2022-10-31T11:47:04.911Z,14.68
2022-10-31T11:52:10.738Z,10.18
2022-10-31T11:54:46.498Z,7.65
2022-10-31T11:57:31.481Z,12.15
2022-10-31T12:00:04.588Z,9.73
2022-10-31T12:02:45.484Z,12.50
2022-10-31T12:05:23.771Z,10.45
2022-10-31T12:07:54.423Z,6.28
2022-10-31T12:10:31.671Z,7.57
2022-10-31T12:13:12.901Z,10.80
2022-10-31T12:15:54.134Z,10.13
2022-10-31T12:18:55.157Z,7.57
2022-10-31T12:21:40.598Z,8.60
2022-10-31T12:24:22.909Z,9.07
2022-10-31T12:27:04.015Z,10.20
2022-10-31T12:29:59.998Z,7.60
2022-10-31T12:32:41.185Z,7.95
2022-10-31T12:35:37.591Z,8.77
2022-10-31T12:38:27.705Z,9.52
2022-10-31T12:41:27.819Z,6.13
2022-10-31T12:44:05.899Z,11.20
2022-10-31T12:46:56.531Z,8.63
2022-10-31T12:49:43.051Z,23.70
2022-10-31T12:52:50.950Z,6.78
2022-10-31T12:55:37.149Z,6.20
2022-10-31T12:58:13.077Z,11.05
2022-10-31T13:00:48.344Z,15.68
2022-10-31T13:03:29.188Z,9.45
2022-10-31T13:06:07.418Z,12.05
2022-10-31T13:08:47.469Z,7.55
2022-10-31T13:11:21.976Z,10.77
2022-10-31T13:14:00.515Z,6.72
2022-10-31T13:16:43.528Z,5.65
2022-10-31T13:19:20.363Z,10.00
2022-10-31T13:22:01.263Z,7.15
2022-10-31T13:24:38.157Z,11.65
2022-10-31T13:27:17.167Z,6.13
2022-10-31T13:29:57.602Z,12.20
2022-10-31T13:32:30.806Z,6.40
2022-10-31T13:35:03.750Z,13.60
2022-10-31T13:37:39.260Z,9.75
2022-10-31T13:40:21.982Z,11.55
2022-10-31T13:43:03.018Z,20.95
2022-10-31T13:45:33.744Z,9.27
2022-10-31T13:48:05.518Z,10.55
2022-10-31T13:50:37.273Z,6.70
2022-10-31T13:53:22.848Z,14.55
2022-10-31T13:56:14.156Z,10.75
2022-10-31T13:59:04.534Z,11.80
2022-10-31T14:01:36.760Z,9.85
2022-10-31T14:04:14.878Z,16.83
2022-10-31T14:06:54.091Z,19.25
2022-10-31T14:09:34.876Z,12.27
2022-10-31T14:12:11.964Z,14.07
2022-10-31T14:14:53.171Z,8.98
2022-10-31T14:17:28.024Z,9.82
2022-10-31T14:20:07.383Z,12.20
2022-10-31T14:22:42.378Z,14.48
2022-10-31T14:25:35.571Z,15.93
2022-10-31T14:28:24.068Z,12.65
2022-10-31T14:30:59.219Z,19.08
2022-10-31T14:33:31.482Z,22.05
2022-10-31T14:36:08.127Z,21.10
2022-10-31T14:38:57.138Z,12.77
2022-10-31T14:41:48.393Z,21.52
2022-10-31T14:44:48.921Z,10.18
2022-10-31T14:47:32.739Z,12.75
2022-10-31T14:50:23.518Z,14.68
2022-10-31T14:52:57.612Z,18.98
2022-10-31T14:55:30.339Z,13.63
2022-10-31T14:58:03.431Z,12.60
2022-10-31T15:00:39.207Z,11.10
2022-10-31T15:03:18.834Z,13.82
2022-10-31T15:05:54.357Z,14.20
2022-10-31T15:08:36.087Z,18.13
2022-10-31T15:11:17.379Z,20.55
2022-10-31T15:13:49.897Z,19.98
2022-10-31T15:16:25.798Z,20.48
2022-10-31T15:18:58.767Z,20.92
2022-10-31T15:21:31.879Z,21.38
2022-10-31T15:24:04.560Z,27.58
2022-10-31T15:26:41.691Z,25.20
2022-10-31T15:29:17.350Z,29.42
2022-10-31T15:31:57.715Z,28.55
2022-10-31T15:34:34.100Z,18.25
2022-10-31T15:37:05.074Z,30.48
2022-10-31T15:39:36.111Z,17.83
2022-10-31T15:42:07.069Z,28.17
2022-10-31T15:44:40.082Z,27.65
2022-10-31T15:47:20.727Z,25.13
2022-10-31T15:49:54.785Z,29.52
2022-10-31T15:52:35.129Z,44.65
2022-10-31T15:55:09.471Z,30.48
2022-10-31T15:57:45.933Z,27.65
2022-10-31T16:00:28.538Z,30.45
2022-10-31T16:03:27.065Z,21.52
2022-10-31T16:05:59.979Z,34.13
2022-10-31T16:08:37.484Z,35.60
2022-10-31T16:11:24.857Z,36.83
2022-10-31T16:14:02.168Z,30.27
2022-10-31T16:16:36.282Z,37.70
2022-10-31T16:19:20.062Z,34.47
2022-10-31T16:21:53.272Z,30.83
2022-10-31T16:24:28.840Z,40.92
2022-10-31T16:27:06.167Z,30.85
2022-10-31T16:29:46.018Z,39.88
2022-10-31T16:32:31.036Z,35.97
2022-10-31T16:35:20.417Z,34.83
2022-10-31T16:37:50.905Z,23.77
2022-10-31T16:40:21.921Z,25.00
2022-10-31T16:42:52.768Z,36.10
2022-10-31T16:45:25.116Z,31.73
2022-10-31T16:47:56.025Z,37.10
2022-10-31T16:50:30.955Z,45.95
2022-10-31T16:53:13.394Z,40.00
2022-10-31T16:55:48.510Z,41.85
2022-10-31T16:58:23.141Z,43.27
2022-10-31T17:00:54.131Z,45.95
2022-10-31T17:03:24.722Z,38.78
2022-10-31T17:05:58.561Z,38.90
2022-10-31T17:08:29.456Z,27.08
2022-10-31T17:11:01.876Z,39.00
2022-10-31T17:13:34.785Z,21.88
2022-10-31T17:16:07.938Z,24.92
2022-10-31T17:18:38.398Z,24.98
2022-10-31T17:21:20.374Z,23.52
2022-10-31T17:23:50.846Z,23.90
2022-10-31T17:26:21.781Z,26.98
2022-10-31T17:28:52.451Z,21.67
2022-10-31T17:31:26.546Z,22.23
2022-10-31T17:34:02.121Z,19.38
2022-10-31T17:36:38.401Z,18.42
2022-10-31T17:39:09.865Z,18.23
2022-10-31T17:41:40.403Z,23.98
2022-10-31T17:44:13.814Z,22.67
2022-10-31T17:46:44.351Z,26.60
2022-10-31T17:49:14.919Z,25.98
2022-10-31T17:51:48.000Z,24.98
2022-10-31T17:54:22.961Z,22.25
2022-10-31T17:56:53.367Z,22.98
2022-10-31T17:59:23.863Z,24.88
2022-10-31T18:01:54.493Z,26.02
2022-10-31T18:04:25.363Z,25.63
2022-10-31T18:06:58.477Z,26.33
2022-10-31T18:09:29.128Z,26.63
2022-10-31T18:11:59.893Z,24.95
2022-10-31T18:14:31.126Z,22.55
2022-10-31T18:17:01.614Z,22.73
2022-10-31T18:19:32.370Z,20.50
2022-10-31T18:22:05.508Z,22.27
2022-10-31T18:24:36.227Z,20.15
2022-10-31T18:27:07.036Z,21.45
2022-10-31T18:29:37.831Z,20.65
2022-10-31T18:32:09.820Z,20.95
2022-10-31T18:34:40.526Z,19.52
2022-10-31T18:37:13.649Z,23.90
2022-10-31T18:39:44.203Z,20.00
2022-10-31T18:42:14.758Z,22.30
2022-10-31T18:44:45.322Z,20.65
2022-10-31T18:47:15.869Z,26.10
2022-10-31T18:49:46.475Z,20.25
2022-10-31T18:52:19.606Z,16.65
2022-10-31T18:54:50.285Z,23.15
2022-10-31T18:57:20.805Z,18.55
2022-10-31T18:59:51.352Z,18.35
2022-10-31T19:02:21.967Z,17.77
2022-10-31T19:04:52.658Z,17.65
2022-10-31T19:07:26.088Z,14.38
2022-10-31T19:09:56.988Z,17.42
2022-10-31T19:12:27.570Z,16.83
2022-10-31T19:14:58.189Z,18.42
2022-10-31T19:17:29.082Z,22.65
2022-10-31T19:19:59.660Z,18.85
2022-10-31T19:22:34.330Z,18.52
2022-10-31T19:25:07.656Z,17.63
2022-10-31T19:27:42.505Z,19.50
2022-10-31T19:30:15.034Z,16.08
2022-10-31T19:32:45.836Z,15.57
2022-10-31T19:35:16.906Z,16.38
2022-10-31T19:37:50.102Z,19.10
2022-10-31T19:40:20.833Z,17.05
2022-10-31T19:42:51.217Z,15.75
2022-10-31T19:45:21.745Z,14.05
2022-10-31T19:47:52.276Z,14.88
2022-10-31T19:50:23.009Z,13.55
2022-10-31T19:52:56.225Z,15.10
2022-10-31T19:55:26.791Z,12.63
2022-10-31T19:58:11.989Z,14.82
2022-10-31T20:00:43.297Z,17.95
2022-10-31T20:03:17.141Z,17.38
2022-10-31T20:05:50.909Z,17.40
2022-10-31T20:08:24.718Z,15.13
2022-10-31T20:10:58.741Z,13.77
2022-10-31T20:13:29.423Z,12.98
2022-10-31T20:16:02.853Z,15.98
2022-10-31T20:18:33.862Z,16.35
2022-10-31T20:21:06.134Z,16.92
2022-10-31T20:23:39.919Z,15.85
2022-10-31T20:26:13.284Z,14.45
2022-10-31T20:28:44.224Z,16.98
2022-10-31T20:31:18.038Z,18.38
2022-10-31T20:33:48.581Z,16.50
2022-10-31T20:36:21.343Z,15.77
2022-10-31T20:38:55.404Z,13.20
2022-10-31T20:41:25.962Z,15.23
2022-10-31T20:43:56.578Z,19.63
2022-10-31T20:46:29.089Z,17.35
2022-10-31T20:48:59.687Z,17.25
2022-10-31T20:51:31.984Z,17.77
2022-10-31T20:54:06.968Z,14.75
2022-10-31T20:56:37.589Z,17.30
2022-10-31T20:59:10.122Z,15.90
2022-10-31T21:01:40.711Z,14.93
2022-10-31T21:04:12.222Z,16.20
2022-10-31T21:06:48.144Z,16.58
2022-10-31T21:09:22.403Z,13.93
2022-10-31T21:11:53.105Z,15.90
2022-10-31T21:14:24.162Z,18.20
2022-10-31T21:16:54.733Z,15.15
2022-10-31T21:19:25.262Z,13.98
2022-10-31T21:21:55.771Z,15.70
2022-10-31T21:24:29.206Z,15.18
2022-10-31T21:27:02.590Z,15.13
2022-10-31T21:29:33.425Z,15.00
2022-10-31T21:32:03.952Z,17.45
2022-10-31T21:34:34.658Z,15.32
2022-10-31T21:37:06.204Z,18.35
2022-10-31T21:39:40.332Z,16.10
2022-10-31T21:42:10.979Z,19.15
2022-10-31T21:44:41.488Z,14.80
2022-10-31T21:47:12.018Z,11.80
2022-10-31T21:49:42.493Z,14.70
2022-10-31T21:52:13.548Z,14.77
2022-10-31T21:54:44.115Z,14.15
2022-10-31T21:57:14.724Z,13.95
2022-10-31T21:59:48.701Z,13.77
2022-10-31T22:02:19.344Z,12.70
2022-10-31T22:04:51.165Z,18.23
2022-10-31T22:07:21.708Z,13.32
2022-10-31T22:09:56.306Z,15.68
2022-10-31T22:12:28.388Z,13.13
2022-10-31T22:15:00.915Z,15.82
2022-10-31T22:17:33.052Z,21.42
2022-10-31T22:20:06.186Z,12.18
2022-10-31T22:22:39.322Z,14.27
2022-10-31T22:25:14.767Z,12.10
2022-10-31T22:27:47.106Z,13.18
2022-10-31T22:30:19.299Z,13.27
2022-10-31T22:32:51.946Z,14.38
2022-10-31T22:35:24.974Z,14.63
2022-10-31T22:37:58.803Z,16.05
2022-10-31T22:40:37.043Z,15.07
2022-10-31T22:43:10.731Z,11.30
2022-10-31T22:45:43.824Z,12.05
2022-10-31T22:48:17.499Z,12.20
2022-10-31T22:50:48.991Z,15.50
2022-10-31T22:53:22.125Z,14.18
2022-10-31T22:55:57.446Z,12.52
2022-10-31T22:58:30.758Z,14.52
2022-10-31T23:01:04.332Z,12.95
2022-10-31T23:03:39.136Z,14.38
2022-10-31T23:06:17.282Z,13.13
2022-10-31T23:08:51.170Z,11.90
2022-10-31T23:11:29.163Z,12.50
2022-10-31T23:14:15.659Z,11.00
2022-10-31T23:19:23.494Z,10.40
2022-10-31T23:22:00.541Z,10.57
2022-10-31T23:24:39.151Z,10.35
2022-10-31T23:27:17.169Z,11.77
2022-10-31T23:29:51.142Z,10.98
2022-10-31T23:32:26.453Z,16.50
2022-10-31T23:35:00.567Z,15.00
2022-10-31T23:37:37.584Z,11.77
2022-10-31T23:40:11.244Z,9.75
2022-10-31T23:42:45.616Z,10.77
2022-10-31T23:45:17.881Z,8.98
2022-10-31T23:47:52.246Z,10.35
2022-10-31T23:50:24.871Z,9.87
2022-10-31T23:52:58.554Z,10.10
2022-10-31T23:55:31.016Z,9.93
2022-10-31T23:58:06.392Z,9.73
